createdAt,value
2022-09-25T00:00:15.639Z,3.50
2022-09-25T00:01:19.910Z,3.50
2022-09-25T00:02:24.500Z,3.75
2022-09-25T00:03:28.560Z,4.00
2022-09-25T00:04:32.491Z,4.00
2022-09-25T00:05:36.663Z,4.00
2022-09-25T00:06:40.774Z,3.50
2022-09-25T00:07:44.767Z,3.50
2022-09-25T00:08:48.768Z,3.00
2022-09-25T00:09:52.746Z,3.50
2022-09-25T00:10:56.777Z,2.50
2022-09-25T00:12:00.811Z,3.00
2022-09-25T00:13:05.026Z,2.50
2022-09-25T00:14:09.240Z,3.50
2022-09-25T00:15:13.493Z,3.00
2022-09-25T00:16:17.857Z,3.50
2022-09-25T00:17:22.110Z,3.50
2022-09-25T00:18:26.521Z,3.00
2022-09-25T00:19:30.648Z,3.50
2022-09-25T00:20:34.841Z,4.50
2022-09-25T00:21:39.137Z,3.00
2022-09-25T00:22:43.134Z,3.50
2022-09-25T00:23:47.046Z,3.00
2022-09-25T00:24:51.040Z,3.00
2022-09-25T00:25:54.919Z,2.50
2022-09-25T00:26:58.935Z,3.00
2022-09-25T00:28:03.243Z,3.00
2022-09-25T00:29:07.652Z,2.00
2022-09-25T00:30:11.763Z,2.50
2022-09-25T00:31:16.109Z,4.00
2022-09-25T00:32:20.068Z,3.25
2022-09-25T00:33:24.070Z,2.75
2022-09-25T00:34:28.080Z,3.50
2022-09-25T00:35:32.089Z,2.50
2022-09-25T00:36:36.172Z,2.75
2022-09-25T00:37:40.287Z,3.00
2022-09-25T00:38:44.124Z,2.25
2022-09-25T00:39:47.992Z,2.50
2022-09-25T00:40:52.043Z,2.00
2022-09-25T00:41:56.077Z,2.50
2022-09-25T00:42:59.928Z,2.50
2022-09-25T00:44:04.005Z,2.00
2022-09-25T00:45:07.994Z,2.00
2022-09-25T00:46:12.182Z,2.50
2022-09-25T00:47:19.151Z,2.00
2022-09-25T00:48:23.362Z,2.50
2022-09-25T00:49:27.383Z,2.00
2022-09-25T00:50:31.284Z,3.00
2022-09-25T00:51:35.191Z,2.75
2022-09-25T00:52:39.163Z,2.50
2022-09-25T00:53:43.464Z,2.75
2022-09-25T00:54:47.466Z,2.00
2022-09-25T00:55:51.376Z,2.50
2022-09-25T00:56:55.354Z,2.00
2022-09-25T00:57:59.365Z,2.00
2022-09-25T00:59:03.468Z,2.50
2022-09-25T01:00:07.574Z,2.50
2022-09-25T01:01:11.490Z,3.00
2022-09-25T01:02:15.639Z,2.50
2022-09-25T01:03:19.682Z,1.50
2022-09-25T01:04:23.586Z,1.50
2022-09-25T01:05:27.573Z,2.00
2022-09-25T01:06:31.788Z,2.00
2022-09-25T01:07:36.119Z,1.50
2022-09-25T01:08:40.609Z,2.00
2022-09-25T01:09:44.574Z,1.75
2022-09-25T01:10:48.514Z,1.75
2022-09-25T01:11:52.633Z,2.00
2022-09-25T01:12:56.676Z,2.50
2022-09-25T01:14:00.830Z,3.00
2022-09-25T01:15:04.813Z,2.25
2022-09-25T01:16:09.024Z,3.00
2022-09-25T01:17:13.337Z,2.50
2022-09-25T01:18:17.544Z,2.00
2022-09-25T01:19:21.435Z,3.00
2022-09-25T01:20:25.435Z,3.00
2022-09-25T01:21:29.643Z,2.25
2022-09-25T01:22:33.757Z,1.75
2022-09-25T01:23:37.750Z,1.50
2022-09-25T01:24:41.853Z,2.00
2022-09-25T01:25:46.054Z,1.50
2022-09-25T01:26:49.946Z,1.25
2022-09-25T01:27:53.958Z,1.00
2022-09-25T01:28:57.967Z,0.50
2022-09-25T01:30:01.964Z,0.50
2022-09-25T01:31:06.115Z,1.50
2022-09-25T01:32:10.092Z,2.50
2022-09-25T01:33:14.164Z,2.50
2022-09-25T01:34:18.170Z,1.50
2022-09-25T01:35:22.273Z,1.50
2022-09-25T01:36:26.271Z,2.00
2022-09-25T01:37:30.481Z,2.00
2022-09-25T01:38:34.482Z,1.50
2022-09-25T01:39:38.481Z,1.50
2022-09-25T01:40:42.553Z,2.00
2022-09-25T01:41:46.788Z,2.00
2022-09-25T01:42:50.698Z,2.00
2022-09-25T01:43:54.690Z,2.00
2022-09-25T01:44:58.790Z,2.00
2022-09-25T01:46:03.003Z,2.00
2022-09-25T01:47:07.221Z,1.50
2022-09-25T01:48:11.516Z,1.25
2022-09-25T01:49:15.927Z,2.00
2022-09-25T01:50:20.145Z,2.00
2022-09-25T01:51:24.130Z,2.00
2022-09-25T01:52:28.191Z,2.00
2022-09-25T01:53:31.986Z,1.00
2022-09-25T01:54:36.029Z,2.25
2022-09-25T01:55:39.786Z,2.50
2022-09-25T01:56:43.621Z,2.00
2022-09-25T01:57:47.930Z,2.50
2022-09-25T01:58:52.034Z,2.00
2022-09-25T01:59:55.937Z,2.50
2022-09-25T02:00:59.965Z,2.00
2022-09-25T02:02:04.041Z,3.00
2022-09-25T02:03:08.042Z,1.75
2022-09-25T02:04:12.397Z,2.50
2022-09-25T02:05:16.367Z,2.50
2022-09-25T02:06:20.350Z,2.00
2022-09-25T02:07:24.654Z,1.50
2022-09-25T02:08:28.762Z,1.50
2022-09-25T02:09:32.973Z,3.00
2022-09-25T02:10:37.069Z,2.00
2022-09-25T02:11:41.085Z,1.75
2022-09-25T02:12:44.969Z,2.00
2022-09-25T02:13:48.929Z,2.25
2022-09-25T02:14:52.870Z,2.00
2022-09-25T02:15:56.874Z,1.75
2022-09-25T02:17:01.238Z,1.75
2022-09-25T02:18:05.384Z,1.50
2022-09-25T02:19:09.475Z,2.50
2022-09-25T02:20:13.364Z,2.25
2022-09-25T02:21:17.287Z,2.00
2022-09-25T02:22:21.390Z,2.00
2022-09-25T02:23:25.595Z,2.00
2022-09-25T02:24:29.402Z,1.75
2022-09-25T02:25:33.320Z,2.50
2022-09-25T02:26:37.293Z,1.00
2022-09-25T02:27:41.599Z,2.25
2022-09-25T02:28:45.704Z,3.00
2022-09-25T02:29:49.653Z,2.50
2022-09-25T02:30:53.533Z,2.00
2022-09-25T02:31:57.610Z,1.00
2022-09-25T02:33:01.616Z,1.50
2022-09-25T02:34:07.259Z,2.00
2022-09-25T02:35:11.040Z,2.50
2022-09-25T02:36:15.166Z,2.00
2022-09-25T02:37:19.248Z,2.50
2022-09-25T02:38:23.451Z,3.00
2022-09-25T02:39:27.465Z,2.50
2022-09-25T02:40:31.743Z,2.00
2022-09-25T02:41:35.873Z,1.25
2022-09-25T02:42:39.875Z,1.50
2022-09-25T02:43:43.866Z,2.00
2022-09-25T02:44:47.828Z,1.75
2022-09-25T02:45:51.676Z,2.00
2022-09-25T02:46:55.667Z,1.50
2022-09-25T02:47:59.664Z,1.50
2022-09-25T02:49:03.474Z,2.50
2022-09-25T02:50:07.568Z,2.00
2022-09-25T02:51:11.979Z,1.75
2022-09-25T02:52:15.982Z,1.75
2022-09-25T02:53:20.080Z,2.75
2022-09-25T02:54:24.084Z,2.50
2022-09-25T02:55:28.387Z,2.00
2022-09-25T02:56:32.596Z,2.50
2022-09-25T02:57:36.605Z,2.50
2022-09-25T02:58:40.593Z,1.75
2022-09-25T02:59:44.820Z,1.00
2022-09-25T03:00:48.734Z,2.00
2022-09-25T03:01:52.973Z,1.50
2022-09-25T03:02:56.952Z,2.25
2022-09-25T03:04:00.907Z,2.00
2022-09-25T03:05:04.815Z,2.00
2022-09-25T03:06:09.125Z,0.50
2022-09-25T03:07:13.122Z,1.50
2022-09-25T03:08:17.121Z,2.00
2022-09-25T03:09:21.122Z,1.50
2022-09-25T03:10:25.126Z,1.50
2022-09-25T03:11:29.296Z,2.50
2022-09-25T03:12:33.327Z,2.00
2022-09-25T03:13:37.432Z,2.50
2022-09-25T03:14:41.393Z,2.00
2022-09-25T03:15:45.446Z,2.50
2022-09-25T03:16:49.450Z,2.50
2022-09-25T03:17:53.539Z,3.00
2022-09-25T03:18:57.499Z,2.50
2022-09-25T03:20:01.435Z,2.25
2022-09-25T03:21:05.547Z,3.00
2022-09-25T03:22:09.614Z,2.50
2022-09-25T03:23:13.550Z,2.50
2022-09-25T03:24:17.442Z,3.25
2022-09-25T03:25:21.641Z,3.00
2022-09-25T03:26:25.617Z,2.50
2022-09-25T03:27:29.651Z,3.50
2022-09-25T03:28:33.507Z,3.50
2022-09-25T03:29:37.396Z,3.00
2022-09-25T03:30:41.388Z,2.50
2022-09-25T03:31:45.676Z,2.00
2022-09-25T03:32:49.529Z,2.75
2022-09-25T03:33:53.548Z,2.50
2022-09-25T03:34:57.515Z,3.75
2022-09-25T03:36:01.555Z,2.50
2022-09-25T03:37:05.875Z,3.00
2022-09-25T03:38:09.868Z,3.00
2022-09-25T03:39:13.623Z,3.50
2022-09-25T03:40:17.547Z,4.00
2022-09-25T03:41:21.781Z,5.00
2022-09-25T03:42:25.979Z,3.25
2022-09-25T03:43:30.078Z,3.00
2022-09-25T03:44:34.294Z,2.75
2022-09-25T03:45:38.211Z,3.50
2022-09-25T03:46:42.085Z,3.00
2022-09-25T03:47:46.184Z,3.00
2022-09-25T03:48:50.180Z,3.50
2022-09-25T03:49:54.385Z,3.50
2022-09-25T03:50:58.391Z,4.00
2022-09-25T03:52:02.387Z,4.00
2022-09-25T03:53:06.394Z,3.50
2022-09-25T03:54:10.629Z,4.00
2022-09-25T03:55:14.812Z,3.50
2022-09-25T03:56:18.814Z,2.50
2022-09-25T03:57:22.568Z,4.00
2022-09-25T03:58:26.601Z,4.00
2022-09-25T03:59:30.601Z,3.25
2022-09-25T04:00:34.372Z,4.00
2022-09-25T04:01:38.463Z,3.50
2022-09-25T04:02:42.290Z,2.75
2022-09-25T04:03:46.202Z,3.50
2022-09-25T04:04:50.201Z,2.75
2022-09-25T04:05:54.098Z,3.75
2022-09-25T04:06:58.094Z,4.00
2022-09-25T04:08:02.201Z,4.00
2022-09-25T04:09:06.201Z,3.50
2022-09-25T04:10:10.318Z,3.00
2022-09-25T04:11:14.254Z,3.00
2022-09-25T04:12:18.035Z,3.00
2022-09-25T04:13:21.893Z,3.50
2022-09-25T04:14:25.792Z,4.50
2022-09-25T04:15:29.908Z,4.00
2022-09-25T04:16:34.004Z,3.50
2022-09-25T04:17:38.004Z,3.50
2022-09-25T04:18:42.114Z,3.00
2022-09-25T04:19:45.874Z,3.25
2022-09-25T04:20:49.808Z,2.75
2022-09-25T04:21:53.781Z,3.00
2022-09-25T04:22:57.577Z,3.50
2022-09-25T04:24:01.497Z,3.00
2022-09-25T04:25:05.606Z,3.00
2022-09-25T04:26:09.609Z,3.00
2022-09-25T04:27:14.901Z,2.50
2022-09-25T04:28:18.927Z,3.50
2022-09-25T04:29:23.251Z,3.25
2022-09-25T04:30:27.177Z,2.75
2022-09-25T04:31:31.440Z,3.00
2022-09-25T04:32:35.474Z,3.25
2022-09-25T04:33:39.665Z,2.75
2022-09-25T04:34:43.769Z,3.25
2022-09-25T04:35:47.771Z,3.75
2022-09-25T04:36:51.662Z,4.50
2022-09-25T04:37:55.662Z,4.00
2022-09-25T04:38:59.674Z,3.50
2022-09-25T04:40:03.665Z,3.50
2022-09-25T04:41:07.790Z,3.50
2022-09-25T04:42:11.569Z,3.00
2022-09-25T04:43:15.491Z,3.00
2022-09-25T04:44:19.292Z,3.00
2022-09-25T04:45:23.271Z,3.25
2022-09-25T04:46:27.323Z,3.00
2022-09-25T04:47:31.472Z,2.50
2022-09-25T04:48:35.365Z,2.50
2022-09-25T04:49:39.265Z,3.00
2022-09-25T04:50:43.472Z,2.50
2022-09-25T04:51:47.457Z,3.00
2022-09-25T04:52:51.371Z,2.50
2022-09-25T04:53:55.371Z,2.00
2022-09-25T04:54:59.391Z,2.25
2022-09-25T04:56:03.377Z,2.00
2022-09-25T04:57:07.570Z,2.25
2022-09-25T04:58:11.990Z,2.50
2022-09-25T04:59:16.093Z,2.50
2022-09-25T05:00:20.301Z,3.00
2022-09-25T05:01:24.445Z,2.25
2022-09-25T05:02:28.756Z,2.00
2022-09-25T05:03:32.871Z,2.50
2022-09-25T05:04:36.913Z,1.75
2022-09-25T05:05:41.021Z,1.75
2022-09-25T05:06:45.020Z,2.50
2022-09-25T05:07:48.923Z,2.50
2022-09-25T05:08:52.748Z,3.00
2022-09-25T05:09:56.586Z,1.00
2022-09-25T05:11:00.615Z,1.75
2022-09-25T05:12:04.618Z,1.00
2022-09-25T05:13:08.411Z,1.50
2022-09-25T05:14:12.504Z,1.00
2022-09-25T05:15:16.516Z,1.25
2022-09-25T05:16:20.603Z,1.00
2022-09-25T05:17:24.522Z,1.00
2022-09-25T05:18:28.528Z,2.25
2022-09-25T05:19:32.523Z,2.25
2022-09-25T05:20:36.388Z,2.00
2022-09-25T05:21:40.532Z,2.50
2022-09-25T05:22:44.629Z,2.00
2022-09-25T05:23:48.550Z,1.50
2022-09-25T05:24:55.295Z,2.00
2022-09-25T05:25:57.453Z,2.50
2022-09-25T05:27:01.362Z,3.25
2022-09-25T05:28:05.560Z,2.50
2022-09-25T05:29:09.512Z,1.75
2022-09-25T05:30:13.866Z,1.75
2022-09-25T05:31:17.931Z,2.75
2022-09-25T05:32:21.867Z,3.00
2022-09-25T05:33:25.752Z,2.00
2022-09-25T05:34:29.820Z,2.00
2022-09-25T05:35:33.991Z,1.50
2022-09-25T05:36:37.970Z,1.00
2022-09-25T05:37:41.868Z,1.25
2022-09-25T05:38:45.871Z,1.50
2022-09-25T05:39:49.770Z,2.00
2022-09-25T05:40:53.692Z,2.00
2022-09-25T05:41:57.670Z,1.50
2022-09-25T05:43:01.440Z,3.00
2022-09-25T05:44:05.483Z,2.00
2022-09-25T05:45:09.773Z,1.75
2022-09-25T05:46:14.068Z,1.50
2022-09-25T05:47:18.098Z,2.00
2022-09-25T05:48:22.201Z,2.00
2022-09-25T05:49:26.453Z,2.00
2022-09-25T05:50:30.395Z,2.00
2022-09-25T05:51:34.537Z,1.25
2022-09-25T05:52:38.606Z,2.00
2022-09-25T05:53:42.401Z,1.50
2022-09-25T05:54:46.402Z,2.00
2022-09-25T05:55:50.307Z,2.50
2022-09-25T05:56:54.305Z,2.00
2022-09-25T05:57:58.204Z,1.50
2022-09-25T05:59:02.093Z,1.50
2022-09-25T06:00:06.108Z,2.00
2022-09-25T06:01:10.611Z,1.00
2022-09-25T06:02:14.534Z,2.00
2022-09-25T06:03:18.554Z,2.00
2022-09-25T06:04:22.819Z,1.50
2022-09-25T06:05:26.845Z,1.25
2022-09-25T06:06:30.728Z,2.25
2022-09-25T06:07:37.690Z,3.00
2022-09-25T06:08:41.587Z,1.50
2022-09-25T06:09:45.590Z,2.00
2022-09-25T06:10:49.442Z,2.00
2022-09-25T06:11:53.389Z,1.50
2022-09-25T06:12:57.280Z,1.00
2022-09-25T06:14:01.290Z,1.00
2022-09-25T06:15:05.190Z,1.00
2022-09-25T06:16:09.254Z,2.00
2022-09-25T06:17:13.183Z,2.00
2022-09-25T06:18:16.952Z,1.00
2022-09-25T06:19:20.685Z,2.00
2022-09-25T06:20:24.586Z,1.00
2022-09-25T06:21:28.499Z,1.00
2022-09-25T06:22:32.487Z,1.50
2022-09-25T06:23:36.373Z,1.75
2022-09-25T06:24:40.377Z,2.00
2022-09-25T06:25:44.274Z,1.00
2022-09-25T06:26:48.348Z,1.50
2022-09-25T06:27:52.482Z,1.00
2022-09-25T06:28:59.731Z,1.75
2022-09-25T06:30:01.410Z,2.00
2022-09-25T06:31:05.365Z,2.00
2022-09-25T06:32:09.743Z,2.00
2022-09-25T06:33:13.614Z,1.50
2022-09-25T06:34:17.510Z,0.75
2022-09-25T06:35:21.611Z,2.00
2022-09-25T06:36:27.328Z,1.50
2022-09-25T06:37:31.148Z,2.00
2022-09-25T06:38:35.151Z,1.50
2022-09-25T06:39:39.050Z,1.25
2022-09-25T06:40:42.979Z,2.00
2022-09-25T06:41:47.155Z,2.00
2022-09-25T06:42:51.050Z,2.00
2022-09-25T06:43:55.260Z,2.25
2022-09-25T06:44:59.258Z,1.50
2022-09-25T06:46:03.125Z,1.25
2022-09-25T06:47:07.347Z,1.75
2022-09-25T06:48:11.574Z,1.50
2022-09-25T06:49:15.790Z,1.50
2022-09-25T06:50:19.772Z,1.00
2022-09-25T06:51:23.680Z,2.00
2022-09-25T06:52:27.573Z,1.50
2022-09-25T06:53:31.891Z,2.50
2022-09-25T06:54:38.387Z,2.50
2022-09-25T06:55:41.006Z,3.50
2022-09-25T06:56:44.915Z,2.50
2022-09-25T06:57:48.996Z,1.50
2022-09-25T06:58:53.112Z,2.00
2022-09-25T06:59:57.221Z,1.00
2022-09-25T07:01:03.146Z,0.75
2022-09-25T07:02:06.066Z,1.50
2022-09-25T07:03:10.456Z,2.00
2022-09-25T07:04:14.349Z,1.50
2022-09-25T07:05:18.350Z,1.50
2022-09-25T07:06:22.353Z,0.50
2022-09-25T07:07:26.463Z,1.00
2022-09-25T07:08:30.458Z,1.00
2022-09-25T07:09:34.459Z,2.00
2022-09-25T07:10:40.702Z,1.00
2022-09-25T07:11:43.379Z,2.00
2022-09-25T07:12:47.382Z,2.00
2022-09-25T07:13:51.383Z,2.00
2022-09-25T07:14:55.486Z,1.00
2022-09-25T07:15:59.344Z,2.00
2022-09-25T07:17:03.193Z,1.50
2022-09-25T07:18:07.426Z,2.00
2022-09-25T07:19:11.607Z,1.50
2022-09-25T07:20:15.931Z,1.50
2022-09-25T07:21:19.916Z,1.25
2022-09-25T07:22:23.979Z,0.75
2022-09-25T07:23:28.006Z,1.50
2022-09-25T07:24:31.543Z,1.00
2022-09-25T07:25:35.835Z,1.00
2022-09-25T07:26:43.048Z,1.50
2022-09-25T07:27:46.258Z,0.75
2022-09-25T07:28:50.013Z,1.00
2022-09-25T07:29:54.062Z,1.00
2022-09-25T07:30:58.206Z,1.50
2022-09-25T07:32:02.190Z,1.50
2022-09-25T07:33:06.126Z,0.50
2022-09-25T07:34:10.333Z,1.00
2022-09-25T07:35:14.174Z,1.00
2022-09-25T07:36:18.583Z,1.50
2022-09-25T07:37:22.686Z,1.50
2022-09-25T07:38:26.785Z,2.00
2022-09-25T07:39:30.594Z,1.50
2022-09-25T07:40:34.385Z,2.00
2022-09-25T07:41:38.500Z,2.00
2022-09-25T07:42:42.492Z,1.75
2022-09-25T07:43:46.481Z,2.50
2022-09-25T07:44:50.463Z,2.25
2022-09-25T07:45:54.862Z,2.00
2022-09-25T07:46:58.729Z,2.50
2022-09-25T07:48:02.590Z,3.00
2022-09-25T07:49:06.590Z,2.50
2022-09-25T07:50:15.249Z,2.75
2022-09-25T07:51:16.127Z,3.25
2022-09-25T07:52:20.540Z,3.50
2022-09-25T07:53:24.643Z,2.50
2022-09-25T07:54:28.647Z,3.00
2022-09-25T07:55:32.829Z,2.50
2022-09-25T07:56:36.955Z,3.00
2022-09-25T07:57:41.180Z,3.50
2022-09-25T07:58:44.960Z,4.50
2022-09-25T07:59:48.863Z,4.50
2022-09-25T08:00:53.071Z,4.00
2022-09-25T08:01:57.023Z,5.50
2022-09-25T08:03:00.995Z,6.50
2022-09-25T08:04:04.967Z,6.25
2022-09-25T08:05:09.139Z,4.50
2022-09-25T08:06:13.181Z,4.00
2022-09-25T08:07:17.379Z,3.00
2022-09-25T08:08:21.691Z,2.50
2022-09-25T08:09:25.890Z,3.00
2022-09-25T08:10:29.892Z,3.00
2022-09-25T08:11:34.218Z,2.75
2022-09-25T08:12:38.401Z,1.50
2022-09-25T08:13:42.688Z,2.00
2022-09-25T08:14:46.610Z,1.00
2022-09-25T08:15:50.978Z,1.50
2022-09-25T08:16:54.679Z,1.75
2022-09-25T08:17:58.718Z,1.50
2022-09-25T08:19:02.711Z,2.00
2022-09-25T08:20:09.482Z,1.50
2022-09-25T08:21:13.482Z,2.50
2022-09-25T08:22:17.380Z,3.00
2022-09-25T08:23:21.385Z,2.25
2022-09-25T08:24:25.244Z,2.00
2022-09-25T08:25:29.211Z,2.75
2022-09-25T08:26:33.489Z,3.00
2022-09-25T08:27:37.490Z,2.00
2022-09-25T08:28:41.694Z,3.00
2022-09-25T08:29:45.753Z,2.50
2022-09-25T08:30:49.655Z,3.50
2022-09-25T08:31:53.494Z,4.50
2022-09-25T08:32:57.398Z,3.50
2022-09-25T08:34:21.076Z,4.00
2022-09-25T08:35:06.421Z,4.25
2022-09-25T08:36:10.421Z,3.25
2022-09-25T08:37:14.223Z,3.00
2022-09-25T08:38:18.249Z,3.25
2022-09-25T08:39:22.134Z,4.00
2022-09-25T08:40:26.415Z,5.00
2022-09-25T08:41:30.323Z,5.00
2022-09-25T08:42:34.222Z,4.00
2022-09-25T08:43:38.116Z,3.25
2022-09-25T08:44:52.644Z,5.50
2022-09-25T08:45:47.048Z,5.50
2022-09-25T08:46:51.046Z,5.00
2022-09-25T08:47:54.944Z,5.00
2022-09-25T08:48:58.832Z,5.50
2022-09-25T08:50:02.854Z,4.50
2022-09-25T08:51:06.950Z,4.50
2022-09-25T08:52:11.360Z,4.50
2022-09-25T08:53:15.060Z,4.50
2022-09-25T08:54:19.052Z,4.00
2022-09-25T08:55:23.055Z,3.50
2022-09-25T08:56:26.951Z,6.00
2022-09-25T08:57:30.958Z,6.75
2022-09-25T08:58:35.064Z,5.75
2022-09-25T08:59:39.366Z,6.00
2022-09-25T09:00:43.565Z,7.75
2022-09-25T09:01:47.619Z,10.75
2022-09-25T09:02:51.540Z,11.25
2022-09-25T09:03:56.601Z,11.00
2022-09-25T09:05:00.504Z,11.00
2022-09-25T09:06:04.606Z,10.50
2022-09-25T09:07:26.290Z,10.25
2022-09-25T09:08:14.100Z,17.75
2022-09-25T09:09:18.942Z,16.00
2022-09-25T09:10:22.962Z,16.00
2022-09-25T09:11:26.863Z,12.50
2022-09-25T09:12:30.856Z,8.50
2022-09-25T09:13:35.063Z,6.25
2022-09-25T09:14:39.271Z,3.75
2022-09-25T09:15:43.402Z,6.50
2022-09-25T09:16:47.270Z,7.00
2022-09-25T09:17:51.483Z,5.00
2022-09-25T09:18:55.467Z,5.50
2022-09-25T09:19:59.383Z,6.00
2022-09-25T09:21:03.381Z,5.75
2022-09-25T09:22:08.661Z,7.25
2022-09-25T09:23:15.484Z,7.75
2022-09-25T09:24:18.676Z,17.00
2022-09-25T09:25:22.653Z,19.75
2022-09-25T09:26:26.863Z,17.25
2022-09-25T09:27:30.660Z,22.50
2022-09-25T09:28:34.970Z,17.00
2022-09-25T09:29:39.073Z,10.75
2022-09-25T09:30:43.234Z,8.00
2022-09-25T09:31:47.601Z,6.50
2022-09-25T09:32:51.489Z,6.00
2022-09-25T09:33:55.700Z,5.50
2022-09-25T09:35:06.300Z,7.00
2022-09-25T09:36:04.521Z,7.50
2022-09-25T09:37:08.638Z,5.50
2022-09-25T09:38:12.721Z,3.50
2022-09-25T09:39:16.927Z,3.75
2022-09-25T09:40:20.750Z,3.50
2022-09-25T09:41:24.721Z,3.50
2022-09-25T09:42:28.928Z,3.75
2022-09-25T09:43:32.829Z,3.75
2022-09-25T09:44:36.831Z,4.00
2022-09-25T09:45:40.927Z,3.50
2022-09-25T09:46:44.730Z,3.50
2022-09-25T09:47:48.851Z,4.50
2022-09-25T09:48:52.526Z,5.00
2022-09-25T09:49:56.940Z,4.50
2022-09-25T09:51:00.841Z,3.75
2022-09-25T09:52:04.731Z,3.50
2022-09-25T09:53:08.743Z,3.25
2022-09-25T09:54:12.957Z,3.50
2022-09-25T09:55:16.940Z,3.25
2022-09-25T09:56:20.976Z,3.00
2022-09-25T09:57:24.841Z,4.00
2022-09-25T09:58:28.965Z,3.75
2022-09-25T09:59:33.161Z,3.50
2022-09-25T10:00:37.255Z,3.75
2022-09-25T10:01:42.127Z,3.00
2022-09-25T10:02:46.615Z,2.75
2022-09-25T10:03:50.916Z,3.25
2022-09-25T10:04:54.689Z,3.25
2022-09-25T10:05:58.802Z,3.00
2022-09-25T10:07:02.592Z,2.75
2022-09-25T10:08:06.588Z,3.00
2022-09-25T10:09:10.804Z,2.00
2022-09-25T10:10:22.785Z,1.50
2022-09-25T10:11:26.890Z,3.00
2022-09-25T10:12:31.504Z,3.00
2022-09-25T10:13:35.481Z,3.00
2022-09-25T10:14:39.508Z,3.25
2022-09-25T10:15:43.714Z,2.75
2022-09-25T10:16:47.713Z,2.50
2022-09-25T10:17:51.817Z,2.00
2022-09-25T10:18:55.508Z,2.00
2022-09-25T10:19:59.388Z,3.00
2022-09-25T10:21:03.315Z,3.50
2022-09-25T10:22:07.307Z,4.00
2022-09-25T10:23:14.602Z,3.00
2022-09-25T10:24:16.542Z,4.00
2022-09-25T10:25:20.353Z,4.00
2022-09-25T10:26:24.024Z,2.75
2022-09-25T10:27:27.712Z,1.75
2022-09-25T10:28:31.628Z,2.50
2022-09-25T10:29:35.542Z,3.50
2022-09-25T10:30:39.479Z,4.00
2022-09-25T10:31:43.322Z,4.00
2022-09-25T10:32:47.036Z,3.50
2022-09-25T10:33:51.017Z,3.25
2022-09-25T10:34:54.918Z,3.50
2022-09-25T10:35:58.671Z,4.50
2022-09-25T10:37:02.403Z,3.50
2022-09-25T10:38:06.203Z,3.25
2022-09-25T10:39:42.280Z,3.75
2022-09-25T10:40:15.289Z,4.00
2022-09-25T10:41:19.429Z,6.50
2022-09-25T10:42:23.634Z,6.00
2022-09-25T10:43:27.843Z,5.75
2022-09-25T10:44:31.844Z,6.25
2022-09-25T10:45:35.984Z,6.00
2022-09-25T10:46:40.357Z,4.75
2022-09-25T10:47:44.362Z,6.00
2022-09-25T10:48:48.261Z,4.50
2022-09-25T10:49:52.273Z,4.50
2022-09-25T10:50:55.951Z,4.75
2022-09-25T10:51:59.948Z,4.25
2022-09-25T10:53:03.961Z,3.00
2022-09-25T10:54:07.763Z,4.75
2022-09-25T10:55:11.959Z,5.00
2022-09-25T10:56:16.162Z,5.00
2022-09-25T10:57:19.959Z,4.75
2022-09-25T10:58:23.963Z,4.75
2022-09-25T10:59:28.167Z,3.00
2022-09-25T11:00:32.266Z,2.50
2022-09-25T11:01:36.602Z,4.25
2022-09-25T11:02:40.880Z,5.75
2022-09-25T11:03:44.890Z,6.25
2022-09-25T11:04:48.585Z,6.50
2022-09-25T11:05:52.782Z,7.00
2022-09-25T11:06:56.683Z,6.00
2022-09-25T11:08:00.689Z,5.50
2022-09-25T11:09:04.603Z,5.00
2022-09-25T11:10:08.330Z,5.00
2022-09-25T11:11:12.285Z,5.00
2022-09-25T11:12:16.079Z,4.25
2022-09-25T11:13:20.286Z,5.50
2022-09-25T11:14:24.527Z,4.50
2022-09-25T11:15:28.391Z,3.75
2022-09-25T11:16:32.217Z,4.25
2022-09-25T11:17:35.974Z,4.00
2022-09-25T11:18:39.885Z,3.50
2022-09-25T11:19:43.874Z,4.00
2022-09-25T11:20:47.627Z,5.00
2022-09-25T11:21:51.572Z,3.50
2022-09-25T11:22:55.365Z,3.00
2022-09-25T11:23:59.376Z,5.00
2022-09-25T11:25:03.385Z,3.00
2022-09-25T11:26:07.170Z,4.50
2022-09-25T11:27:11.059Z,4.00
2022-09-25T11:28:14.867Z,4.00
2022-09-25T11:29:18.715Z,4.25
2022-09-25T11:30:22.582Z,4.75
2022-09-25T11:31:26.553Z,4.25
2022-09-25T11:32:30.432Z,3.75
2022-09-25T11:33:34.251Z,4.50
2022-09-25T11:34:38.055Z,5.50
2022-09-25T11:35:41.949Z,5.00
2022-09-25T11:36:45.841Z,5.25
2022-09-25T11:37:50.051Z,5.25
2022-09-25T11:38:54.155Z,5.00
2022-09-25T11:39:58.363Z,3.75
2022-09-25T11:41:02.354Z,4.75
2022-09-25T11:42:06.149Z,4.00
2022-09-25T11:43:10.171Z,5.00
2022-09-25T11:44:14.567Z,5.50
2022-09-25T11:45:18.812Z,5.00
2022-09-25T11:46:22.898Z,6.00
2022-09-25T11:47:26.888Z,6.50
2022-09-25T11:48:30.961Z,6.00
2022-09-25T11:49:34.897Z,6.25
2022-09-25T11:50:38.782Z,6.50
2022-09-25T11:51:42.988Z,6.75
2022-09-25T11:52:47.189Z,6.50
2022-09-25T11:53:51.195Z,5.50
2022-09-25T11:54:54.950Z,6.25
2022-09-25T11:55:58.682Z,5.50
2022-09-25T11:57:02.681Z,4.75
2022-09-25T11:58:06.689Z,5.50
2022-09-25T11:59:10.553Z,6.00
2022-09-25T12:00:14.379Z,6.00
2022-09-25T12:01:18.259Z,5.75
2022-09-25T12:02:22.124Z,5.75
2022-09-25T12:03:25.840Z,5.25
2022-09-25T12:04:29.578Z,5.75
2022-09-25T12:05:33.393Z,5.00
2022-09-25T12:06:37.262Z,5.50
2022-09-25T12:07:41.262Z,5.00
2022-09-25T12:08:45.163Z,5.25
2022-09-25T12:09:48.878Z,4.50
2022-09-25T12:10:52.752Z,4.50
2022-09-25T12:11:57.063Z,3.75
2022-09-25T12:13:00.959Z,5.00
2022-09-25T12:14:04.822Z,5.25
2022-09-25T12:15:08.652Z,5.50
2022-09-25T12:16:12.688Z,7.00
2022-09-25T12:17:16.961Z,7.50
2022-09-25T12:18:21.072Z,7.50
2022-09-25T12:19:25.270Z,8.00
2022-09-25T12:20:29.579Z,6.50
2022-09-25T12:21:33.681Z,6.75
2022-09-25T12:22:37.988Z,7.00
2022-09-25T12:23:42.203Z,7.00
2022-09-25T12:24:46.301Z,7.00
2022-09-25T12:25:50.413Z,7.00
2022-09-25T12:26:54.055Z,6.50
2022-09-25T12:27:57.849Z,7.75
2022-09-25T12:29:01.697Z,7.00
2022-09-25T12:30:05.488Z,7.25
2022-09-25T12:31:09.693Z,7.25
2022-09-25T12:32:13.587Z,9.50
2022-09-25T12:33:17.488Z,9.00
2022-09-25T12:34:21.389Z,7.75
2022-09-25T12:35:25.079Z,7.00
2022-09-25T12:36:28.903Z,7.00
2022-09-25T12:37:32.673Z,6.50
2022-09-25T12:38:36.437Z,7.00
2022-09-25T12:39:40.278Z,7.50
2022-09-25T12:40:44.244Z,6.75
2022-09-25T12:41:47.965Z,6.75
2022-09-25T12:42:51.860Z,6.50
2022-09-25T12:43:55.730Z,5.75
2022-09-25T12:44:59.458Z,7.00
2022-09-25T12:46:03.305Z,7.00
2022-09-25T12:47:07.063Z,7.00
2022-09-25T12:48:11.146Z,6.50
2022-09-25T12:49:14.841Z,7.00
2022-09-25T12:50:19.051Z,7.50
2022-09-25T12:51:22.841Z,5.75
2022-09-25T12:52:26.850Z,7.00
2022-09-25T12:53:30.750Z,6.00
2022-09-25T12:54:34.618Z,7.00
2022-09-25T12:55:38.344Z,7.00
2022-09-25T12:56:42.026Z,5.50
2022-09-25T12:57:45.928Z,6.50
2022-09-25T12:58:49.722Z,7.00
2022-09-25T12:59:53.741Z,8.00
2022-09-25T13:00:57.627Z,7.00
2022-09-25T13:02:01.496Z,5.75
2022-09-25T13:03:05.225Z,7.00
2022-09-25T13:04:09.121Z,7.25
2022-09-25T13:05:12.909Z,7.75
2022-09-25T13:06:16.812Z,7.50
2022-09-25T13:07:20.707Z,5.75
2022-09-25T13:08:24.420Z,6.25
2022-09-25T13:09:28.301Z,6.50
2022-09-25T13:10:32.085Z,6.50
2022-09-25T13:11:36.101Z,5.50
2022-09-25T13:12:39.898Z,6.75
2022-09-25T13:13:43.669Z,5.75
2022-09-25T13:14:47.415Z,6.50
2022-09-25T13:15:51.284Z,7.25
2022-09-25T13:16:55.033Z,6.00
2022-09-25T13:17:58.773Z,6.00
2022-09-25T13:19:02.778Z,6.50
2022-09-25T13:20:06.502Z,7.00
2022-09-25T13:21:10.168Z,6.25
2022-09-25T13:22:14.264Z,6.50
2022-09-25T13:23:17.961Z,7.50
2022-09-25T13:24:21.859Z,6.50
2022-09-25T13:25:25.665Z,6.25
2022-09-25T13:26:29.494Z,7.50
2022-09-25T13:27:37.377Z,7.00
2022-09-25T13:28:38.268Z,6.50
2022-09-25T13:29:42.029Z,7.50
2022-09-25T13:30:45.747Z,8.00
2022-09-25T13:31:49.562Z,8.50
2022-09-25T13:32:53.352Z,7.00
2022-09-25T13:33:57.154Z,7.00
2022-09-25T13:35:01.080Z,7.50
2022-09-25T13:36:04.843Z,7.00
2022-09-25T13:37:08.641Z,6.50
2022-09-25T13:38:12.499Z,7.00
2022-09-25T13:39:16.244Z,7.00
2022-09-25T13:40:20.177Z,7.00
2022-09-25T13:41:24.158Z,7.25
2022-09-25T13:42:27.951Z,7.75
2022-09-25T13:43:34.919Z,7.50
2022-09-25T13:44:36.851Z,7.00
2022-09-25T13:45:41.093Z,7.25
2022-09-25T13:46:45.161Z,8.00
2022-09-25T13:47:49.267Z,7.75
2022-09-25T13:48:52.960Z,9.25
2022-09-25T13:49:56.960Z,9.00
2022-09-25T13:51:00.769Z,7.00
2022-09-25T13:52:04.553Z,7.00
2022-09-25T13:53:08.347Z,6.50
2022-09-25T13:54:12.062Z,8.00
2022-09-25T13:55:16.158Z,7.00
2022-09-25T13:56:20.148Z,7.50
2022-09-25T13:57:24.149Z,8.00
2022-09-25T13:58:28.147Z,6.50
2022-09-25T13:59:32.365Z,7.00
2022-09-25T14:00:36.461Z,7.50
2022-09-25T14:01:40.513Z,6.50
2022-09-25T14:02:44.571Z,6.75
2022-09-25T14:03:48.488Z,8.50
2022-09-25T14:04:52.155Z,8.50
2022-09-25T14:05:56.360Z,9.00
2022-09-25T14:07:00.261Z,9.00
2022-09-25T14:08:04.001Z,8.00
2022-09-25T14:09:07.888Z,8.50
2022-09-25T14:10:12.322Z,7.50
2022-09-25T14:11:16.476Z,8.00